sensor_id;sensor_type;location;lat;lon;timestamp;temperature;humidity
45319;DHT22;31057;48.498;32.260;2023-01-19T00:06:53;6.70;99.90
45319;DHT22;31057;48.498;32.260;2023-01-19T00:08:55;6.60;99.90
45319;DHT22;31057;48.498;32.260;2023-01-19T00:10:57;6.60;99.90
45319;DHT22;31057;48.498;32.260;2023-01-19T00:12:59;6.70;99.90
45319;DHT22;31057;48.498;32.260;2023-01-19T00:15:02;6.70;99.90
45319;DHT22;31057;48.498;32.260;2023-01-19T00:17:04;6.60;99.90
45319;DHT22;31057;48.498;32.260;2023-01-19T00:19:06;6.70;99.90
45319;DHT22;31057;48.498;32.260;2023-01-19T00:21:08;6.70;99.90
45319;DHT22;31057;48.498;32.260;2023-01-19T00:23:10;6.60;99.90
45319;DHT22;31057;48.498;32.260;2023-01-19T00:25:12;6.80;99.90
45319;DHT22;31057;48.498;32.260;2023-01-19T00:27:14;6.80;99.90
45319;DHT22;31057;48.498;32.260;2023-01-19T00:29:16;6.70;99.90
45319;DHT22;31057;48.498;32.260;2023-01-19T00:31:18;6.70;99.90
45319;DHT22;31057;48.498;32.260;2023-01-19T00:33:22;6.60;99.90
45319;DHT22;31057;48.498;32.260;2023-01-19T00:35:24;6.60;99.90
45319;DHT22;31057;48.498;32.260;2023-01-19T00:37:26;6.70;99.90
45319;DHT22;31057;48.498;32.260;2023-01-19T00:39:28;6.80;99.90
45319;DHT22;31057;48.498;32.260;2023-01-19T00:41:30;6.90;99.90
45319;DHT22;31057;48.498;32.260;2023-01-19T00:43:50;7.00;99.90
45319;DHT22;31057;48.498;32.260;2023-01-19T00:45:52;7.00;99.90
45319;DHT22;31057;48.498;32.260;2023-01-19T00:47:54;7.00;99.90
45319;DHT22;31057;48.498;32.260;2023-01-19T00:49:57;7.00;99.90
45319;DHT22;31057;48.498;32.260;2023-01-19T00:51:59;7.00;99.90
45319;DHT22;31057;48.498;32.260;2023-01-19T00:54:01;7.10;99.90
45319;DHT22;31057;48.498;32.260;2023-01-19T00:56:05;7.10;99.90
45319;DHT22;31057;48.498;32.260;2023-01-19T00:58:07;7.10;99.90
45319;DHT22;31057;48.498;32.260;2023-01-19T01:00:15;7.10;99.90
45319;DHT22;31057;48.498;32.260;2023-01-19T01:02:17;7.40;99.90
45319;DHT22;31057;48.498;32.260;2023-01-19T01:04:19;7.20;99.90
45319;DHT22;31057;48.498;32.260;2023-01-19T01:06:21;7.40;99.90
45319;DHT22;31057;48.498;32.260;2023-01-19T01:08:23;7.60;99.90
45319;DHT22;31057;48.498;32.260;2023-01-19T01:10:28;7.30;99.90
45319;DHT22;31057;48.498;32.260;2023-01-19T01:12:30;7.20;99.90
45319;DHT22;31057;48.498;32.260;2023-01-19T01:14:32;7.20;99.90
45319;DHT22;31057;48.498;32.260;2023-01-19T01:16:34;7.20;99.90
45319;DHT22;31057;48.498;32.260;2023-01-19T01:18:35;7.30;99.90
45319;DHT22;31057;48.498;32.260;2023-01-19T01:20:37;7.30;99.90
45319;DHT22;31057;48.498;32.260;2023-01-19T01:22:39;7.30;99.90
45319;DHT22;31057;48.498;32.260;2023-01-19T01:24:45;7.30;99.90
45319;DHT22;31057;48.498;32.260;2023-01-19T01:26:47;7.30;99.90
45319;DHT22;31057;48.498;32.260;2023-01-19T01:28:49;7.30;99.90
45319;DHT22;31057;48.498;32.260;2023-01-19T01:30:55;7.30;99.90
45319;DHT22;31057;48.498;32.260;2023-01-19T01:32:57;7.30;99.90
45319;DHT22;31057;48.498;32.260;2023-01-19T01:35:00;7.30;99.90
45319;DHT22;31057;48.498;32.260;2023-01-19T01:37:01;7.30;99.90
45319;DHT22;31057;48.498;32.260;2023-01-19T01:39:04;7.30;99.90
45319;DHT22;31057;48.498;32.260;2023-01-19T01:41:06;7.40;99.90
45319;DHT22;31057;48.498;32.260;2023-01-19T01:43:12;7.40;99.90
45319;DHT22;31057;48.498;32.260;2023-01-19T01:45:34;7.30;99.90
45319;DHT22;31057;48.498;32.260;2023-01-19T01:47:44;7.30;99.90
45319;DHT22;31057;48.498;32.260;2023-01-19T01:49:47;7.30;99.90
45319;DHT22;31057;48.498;32.260;2023-01-19T01:51:51;7.30;99.90
45319;DHT22;31057;48.498;32.260;2023-01-19T01:56:13;7.50;99.90
45319;DHT22;31057;48.498;32.260;2023-01-19T01:58:17;7.40;99.90
45319;DHT22;31057;48.498;32.260;2023-01-19T02:00:19;7.50;99.90
45319;DHT22;31057;48.498;32.260;2023-01-19T02:02:24;7.40;99.90
45319;DHT22;31057;48.498;32.260;2023-01-19T04:16:30;7.90;99.90
45319;DHT22;31057;48.498;32.260;2023-01-19T04:18:32;7.90;99.90
45319;DHT22;31057;48.498;32.260;2023-01-19T04:20:36;7.90;99.90
45319;DHT22;31057;48.498;32.260;2023-01-19T04:22:38;7.90;99.90
45319;DHT22;31057;48.498;32.260;2023-01-19T04:24:40;8.00;99.90
45319;DHT22;31057;48.498;32.260;2023-01-19T04:26:42;8.00;99.90
45319;DHT22;31057;48.498;32.260;2023-01-19T04:28:44;7.90;99.90
45319;DHT22;31057;48.498;32.260;2023-01-19T04:30:49;7.80;99.90
45319;DHT22;31057;48.498;32.260;2023-01-19T04:32:52;7.70;99.90
45319;DHT22;31057;48.498;32.260;2023-01-19T04:34:56;7.80;99.90
45319;DHT22;31057;48.498;32.260;2023-01-19T04:36:57;7.80;99.90
45319;DHT22;31057;48.498;32.260;2023-01-19T04:38:59;7.90;99.90
45319;DHT22;31057;48.498;32.260;2023-01-19T04:41:01;7.80;99.90
45319;DHT22;31057;48.498;32.260;2023-01-19T04:43:03;7.80;99.90
45319;DHT22;31057;48.498;32.260;2023-01-19T04:45:05;7.80;99.90
45319;DHT22;31057;48.498;32.260;2023-01-19T04:47:08;7.80;99.90
45319;DHT22;31057;48.498;32.260;2023-01-19T04:49:10;7.80;99.90
45319;DHT22;31057;48.498;32.260;2023-01-19T04:51:12;7.80;99.90
45319;DHT22;31057;48.498;32.260;2023-01-19T04:53:14;7.80;99.90
45319;DHT22;31057;48.498;32.260;2023-01-19T04:55:17;7.70;99.90
45319;DHT22;31057;48.498;32.260;2023-01-19T04:57:19;7.90;99.90
45319;DHT22;31057;48.498;32.260;2023-01-19T04:59:21;7.90;99.90
45319;DHT22;31057;48.498;32.260;2023-01-19T05:01:22;7.90;99.90
45319;DHT22;31057;48.498;32.260;2023-01-19T05:03:25;7.90;99.90
45319;DHT22;31057;48.498;32.260;2023-01-19T05:05:28;7.90;99.90
45319;DHT22;31057;48.498;32.260;2023-01-19T05:07:30;7.90;99.90
45319;DHT22;31057;48.498;32.260;2023-01-19T05:09:32;7.90;99.90
45319;DHT22;31057;48.498;32.260;2023-01-19T05:11:34;8.00;99.90
45319;DHT22;31057;48.498;32.260;2023-01-19T05:13:36;8.20;99.90
45319;DHT22;31057;48.498;32.260;2023-01-19T05:15:38;8.20;99.90
45319;DHT22;31057;48.498;32.260;2023-01-19T05:17:40;8.30;99.90
45319;DHT22;31057;48.498;32.260;2023-01-19T05:19:42;8.30;99.90
45319;DHT22;31057;48.498;32.260;2023-01-19T05:21:44;8.20;99.90
45319;DHT22;31057;48.498;32.260;2023-01-19T05:23:46;8.20;99.90
45319;DHT22;31057;48.498;32.260;2023-01-19T05:25:48;8.20;99.90
45319;DHT22;31057;48.498;32.260;2023-01-19T05:27:50;8.30;99.90
45319;DHT22;31057;48.498;32.260;2023-01-19T05:29:52;8.40;99.90
45319;DHT22;31057;48.498;32.260;2023-01-19T05:31:54;8.40;99.90
45319;DHT22;31057;48.498;32.260;2023-01-19T05:33:56;8.40;99.90
45319;DHT22;31057;48.498;32.260;2023-01-19T05:35:58;8.20;99.90
45319;DHT22;31057;48.498;32.260;2023-01-19T05:38:00;8.10;99.90
45319;DHT22;31057;48.498;32.260;2023-01-19T05:40:02;8.10;99.90
45319;DHT22;31057;48.498;32.260;2023-01-19T05:42:04;8.10;99.90
45319;DHT22;31057;48.498;32.260;2023-01-19T05:44:08;8.10;99.90
45319;DHT22;31057;48.498;32.260;2023-01-19T05:46:10;8.20;99.90
45319;DHT22;31057;48.498;32.260;2023-01-19T05:48:12;8.20;99.90
45319;DHT22;31057;48.498;32.260;2023-01-19T05:50:14;8.20;99.90
45319;DHT22;31057;48.498;32.260;2023-01-19T05:52:16;8.10;99.90
45319;DHT22;31057;48.498;32.260;2023-01-19T05:54:19;8.00;99.90
45319;DHT22;31057;48.498;32.260;2023-01-19T05:56:21;8.00;99.90
45319;DHT22;31057;48.498;32.260;2023-01-19T05:58:23;8.00;99.90
45319;DHT22;31057;48.498;32.260;2023-01-19T06:00:25;7.90;99.90
45319;DHT22;31057;48.498;32.260;2023-01-19T08:13:36;9.90;99.90
45319;DHT22;31057;48.498;32.260;2023-01-19T08:15:38;10.20;99.90
45319;DHT22;31057;48.498;32.260;2023-01-19T08:17:40;10.20;99.90
45319;DHT22;31057;48.498;32.260;2023-01-19T08:19:42;10.30;99.90
45319;DHT22;31057;48.498;32.260;2023-01-19T08:21:45;10.50;99.90
45319;DHT22;31057;48.498;32.260;2023-01-19T08:23:54;10.70;99.90
45319;DHT22;31057;48.498;32.260;2023-01-19T08:25:56;11.10;99.90
45319;DHT22;31057;48.498;32.260;2023-01-19T08:27:58;11.10;99.90
45319;DHT22;31057;48.498;32.260;2023-01-19T08:30:01;11.20;99.90
45319;DHT22;31057;48.498;32.260;2023-01-19T08:32:03;11.20;99.90
45319;DHT22;31057;48.498;32.260;2023-01-19T08:34:05;11.30;99.90
45319;DHT22;31057;48.498;32.260;2023-01-19T08:36:07;11.10;99.90
45319;DHT22;31057;48.498;32.260;2023-01-19T08:38:09;11.30;99.90
45319;DHT22;31057;48.498;32.260;2023-01-19T08:40:12;11.40;99.90
45319;DHT22;31057;48.498;32.260;2023-01-19T08:42:14;11.50;99.90
45319;DHT22;31057;48.498;32.260;2023-01-19T08:44:16;11.40;99.90
45319;DHT22;31057;48.498;32.260;2023-01-19T08:46:18;11.30;99.90
45319;DHT22;31057;48.498;32.260;2023-01-19T08:48:22;11.30;99.90
45319;DHT22;31057;48.498;32.260;2023-01-19T08:50:26;11.40;99.90
45319;DHT22;31057;48.498;32.260;2023-01-19T08:52:28;11.40;99.90
45319;DHT22;31057;48.498;32.260;2023-01-19T08:54:31;11.50;99.90
45319;DHT22;31057;48.498;32.260;2023-01-19T08:56:33;11.60;99.90
45319;DHT22;31057;48.498;32.260;2023-01-19T08:58:35;11.60;99.90
45319;DHT22;31057;48.498;32.260;2023-01-19T09:00:38;11.50;99.90
45319;DHT22;31057;48.498;32.260;2023-01-19T09:02:40;11.50;99.90
45319;DHT22;31057;48.498;32.260;2023-01-19T09:04:42;11.40;99.90
45319;DHT22;31057;48.498;32.260;2023-01-19T09:06:44;11.40;99.90
45319;DHT22;31057;48.498;32.260;2023-01-19T09:08:47;11.30;99.90
45319;DHT22;31057;48.498;32.260;2023-01-19T09:10:50;11.50;99.90
45319;DHT22;31057;48.498;32.260;2023-01-19T09:12:52;11.60;99.90
45319;DHT22;31057;48.498;32.260;2023-01-19T09:14:54;11.50;99.90
45319;DHT22;31057;48.498;32.260;2023-01-19T09:16:56;11.40;99.90
45319;DHT22;31057;48.498;32.260;2023-01-19T09:18:58;11.30;99.90
45319;DHT22;31057;48.498;32.260;2023-01-19T09:21:01;11.30;99.90
45319;DHT22;31057;48.498;32.260;2023-01-19T09:23:03;11.20;99.90
45319;DHT22;31057;48.498;32.260;2023-01-19T09:25:06;11.10;99.90
45319;DHT22;31057;48.498;32.260;2023-01-19T09:27:08;11.50;99.90
45319;DHT22;31057;48.498;32.260;2023-01-19T09:29:10;11.50;99.90
45319;DHT22;31057;48.498;32.260;2023-01-19T09:31:12;11.40;99.90
45319;DHT22;31057;48.498;32.260;2023-01-19T09:33:17;11.20;99.90
45319;DHT22;31057;48.498;32.260;2023-01-19T09:35:19;11.20;99.90
45319;DHT22;31057;48.498;32.260;2023-01-19T09:37:22;11.20;99.90
45319;DHT22;31057;48.498;32.260;2023-01-19T09:39:24;11.20;99.90
45319;DHT22;31057;48.498;32.260;2023-01-19T09:41:27;11.20;99.90
45319;DHT22;31057;48.498;32.260;2023-01-19T09:45:43;11.40;99.90
45319;DHT22;31057;48.498;32.260;2023-01-19T09:47:47;11.40;99.90
45319;DHT22;31057;48.498;32.260;2023-01-19T09:50:04;11.40;99.90
45319;DHT22;31057;48.498;32.260;2023-01-19T09:52:11;11.40;99.90
45319;DHT22;31057;48.498;32.260;2023-01-19T09:56:20;11.40;99.90
45319;DHT22;31057;48.498;32.260;2023-01-19T09:58:23;11.50;99.90
45319;DHT22;31057;48.498;32.260;2023-01-19T10:00:26;11.60;99.90
45319;DHT22;31057;48.498;32.260;2023-01-19T12:17:04;13.60;99.90
45319;DHT22;31057;48.498;32.260;2023-01-19T12:19:22;13.80;99.90
45319;DHT22;31057;48.498;32.260;2023-01-19T12:21:25;13.90;99.90
45319;DHT22;31057;48.498;32.260;2023-01-19T12:27:59;13.80;99.90
45319;DHT22;31057;48.498;32.260;2023-01-19T12:30:01;13.80;99.90
45319;DHT22;31057;48.498;32.260;2023-01-19T12:34:38;13.80;99.90
45319;DHT22;31057;48.498;32.260;2023-01-19T12:36:41;13.70;99.90
45319;DHT22;31057;48.498;32.260;2023-01-19T12:40:47;13.80;99.90
45319;DHT22;31057;48.498;32.260;2023-01-19T12:42:56;13.80;99.90
45319;DHT22;31057;48.498;32.260;2023-01-19T12:45:07;13.60;99.90
45319;DHT22;31057;48.498;32.260;2023-01-19T12:49:39;13.50;99.90
45319;DHT22;31057;48.498;32.260;2023-01-19T12:51:43;13.40;99.90
45319;DHT22;31057;48.498;32.260;2023-01-19T12:53:49;13.30;99.90
45319;DHT22;31057;48.498;32.260;2023-01-19T12:55:58;13.40;99.90
45319;DHT22;31057;48.498;32.260;2023-01-19T12:58:15;13.50;99.90
45319;DHT22;31057;48.498;32.260;2023-01-19T13:04:32;13.30;99.90
45319;DHT22;31057;48.498;32.260;2023-01-19T13:09:30;13.40;99.90
45319;DHT22;31057;48.498;32.260;2023-01-19T13:11:32;13.50;99.90
45319;DHT22;31057;48.498;32.260;2023-01-19T13:13:41;13.60;99.90
45319;DHT22;31057;48.498;32.260;2023-01-19T13:15:44;13.50;99.90
45319;DHT22;31057;48.498;32.260;2023-01-19T13:17:50;13.40;99.90
45319;DHT22;31057;48.498;32.260;2023-01-19T13:20:04;13.40;99.90
45319;DHT22;31057;48.498;32.260;2023-01-19T13:25:20;13.40;99.90
45319;DHT22;31057;48.498;32.260;2023-01-19T13:27:24;13.40;99.90
45319;DHT22;31057;48.498;32.260;2023-01-19T13:29:35;13.40;99.90
45319;DHT22;31057;48.498;32.260;2023-01-19T13:31:39;13.50;99.90
45319;DHT22;31057;48.498;32.260;2023-01-19T13:33:53;13.30;99.90
45319;DHT22;31057;48.498;32.260;2023-01-19T13:35:57;13.10;99.90
45319;DHT22;31057;48.498;32.260;2023-01-19T13:37:59;13.10;99.90
45319;DHT22;31057;48.498;32.260;2023-01-19T13:40:02;12.90;99.90
45319;DHT22;31057;48.498;32.260;2023-01-19T13:42:17;12.90;99.90
45319;DHT22;31057;48.498;32.260;2023-01-19T13:44:29;13.00;99.90
45319;DHT22;31057;48.498;32.260;2023-01-19T13:46:35;13.10;99.90
45319;DHT22;31057;48.498;32.260;2023-01-19T13:48:39;12.90;99.90
45319;DHT22;31057;48.498;32.260;2023-01-19T13:50:56;12.60;99.90
45319;DHT22;31057;48.498;32.260;2023-01-19T13:52:59;12.60;99.90
45319;DHT22;31057;48.498;32.260;2023-01-19T13:55:02;12.50;99.90
45319;DHT22;31057;48.498;32.260;2023-01-19T13:57:21;12.50;99.90
45319;DHT22;31057;48.498;32.260;2023-01-19T13:59:23;12.40;99.90
45319;DHT22;31057;48.498;32.260;2023-01-19T16:13:34;10.50;99.90
45319;DHT22;31057;48.498;32.260;2023-01-19T16:15:38;10.40;99.90
45319;DHT22;31057;48.498;32.260;2023-01-19T16:17:41;10.40;99.90
45319;DHT22;31057;48.498;32.260;2023-01-19T16:19:44;10.30;99.90
45319;DHT22;31057;48.498;32.260;2023-01-19T16:21:46;10.40;99.90
45319;DHT22;31057;48.498;32.260;2023-01-19T16:23:48;10.40;99.90
45319;DHT22;31057;48.498;32.260;2023-01-19T16:25:54;10.40;99.90
45319;DHT22;31057;48.498;32.260;2023-01-19T16:27:56;10.20;99.90
45319;DHT22;31057;48.498;32.260;2023-01-19T16:29:59;10.10;99.90
45319;DHT22;31057;48.498;32.260;2023-01-19T16:32:05;10.00;99.90
45319;DHT22;31057;48.498;32.260;2023-01-19T16:34:08;10.00;99.90
45319;DHT22;31057;48.498;32.260;2023-01-19T16:36:25;9.90;99.90
45319;DHT22;31057;48.498;32.260;2023-01-19T16:38:27;9.90;99.90
45319;DHT22;31057;48.498;32.260;2023-01-19T16:40:30;9.90;99.90
45319;DHT22;31057;48.498;32.260;2023-01-19T16:42:34;10.00;99.90
45319;DHT22;31057;48.498;32.260;2023-01-19T16:44:36;10.00;99.90
45319;DHT22;31057;48.498;32.260;2023-01-19T16:46:40;10.00;99.90
45319;DHT22;31057;48.498;32.260;2023-01-19T16:48:42;9.80;99.90
45319;DHT22;31057;48.498;32.260;2023-01-19T16:51:05;9.60;99.90
45319;DHT22;31057;48.498;32.260;2023-01-19T16:53:07;9.50;99.90
45319;DHT22;31057;48.498;32.260;2023-01-19T16:55:11;9.50;99.90
45319;DHT22;31057;48.498;32.260;2023-01-19T16:57:13;9.50;99.90
45319;DHT22;31057;48.498;32.260;2023-01-19T16:59:16;9.90;99.90
45319;DHT22;31057;48.498;32.260;2023-01-19T17:01:19;9.70;99.90
45319;DHT22;31057;48.498;32.260;2023-01-19T17:03:24;9.60;99.90
45319;DHT22;31057;48.498;32.260;2023-01-19T17:05:27;9.40;99.90
45319;DHT22;31057;48.498;32.260;2023-01-19T17:07:29;9.40;99.90
45319;DHT22;31057;48.498;32.260;2023-01-19T17:09:31;9.40;99.90
45319;DHT22;31057;48.498;32.260;2023-01-19T17:11:35;9.40;99.90
45319;DHT22;31057;48.498;32.260;2023-01-19T17:13:37;9.50;99.90
45319;DHT22;31057;48.498;32.260;2023-01-19T17:15:40;9.50;99.90
45319;DHT22;31057;48.498;32.260;2023-01-19T17:17:42;9.50;99.90
45319;DHT22;31057;48.498;32.260;2023-01-19T17:19:44;9.40;99.90
45319;DHT22;31057;48.498;32.260;2023-01-19T17:21:46;9.40;99.90
45319;DHT22;31057;48.498;32.260;2023-01-19T17:23:52;9.40;99.90
45319;DHT22;31057;48.498;32.260;2023-01-19T17:25:56;9.40;99.90
45319;DHT22;31057;48.498;32.260;2023-01-19T17:27:59;9.40;99.90
45319;DHT22;31057;48.498;32.260;2023-01-19T17:30:02;9.40;99.90
45319;DHT22;31057;48.498;32.260;2023-01-19T17:32:05;9.50;99.90
45319;DHT22;31057;48.498;32.260;2023-01-19T17:34:07;9.60;99.90
45319;DHT22;31057;48.498;32.260;2023-01-19T17:36:13;9.70;99.90
45319;DHT22;31057;48.498;32.260;2023-01-19T17:38:15;9.40;99.90
45319;DHT22;31057;48.498;32.260;2023-01-19T17:40:18;9.30;99.90
45319;DHT22;31057;48.498;32.260;2023-01-19T17:42:19;9.20;99.90
45319;DHT22;31057;48.498;32.260;2023-01-19T17:44:23;9.30;99.90
45319;DHT22;31057;48.498;32.260;2023-01-19T17:46:26;9.20;99.90
45319;DHT22;31057;48.498;32.260;2023-01-19T17:48:29;9.10;99.90
45319;DHT22;31057;48.498;32.260;2023-01-19T17:50:32;9.20;99.90
45319;DHT22;31057;48.498;32.260;2023-01-19T17:52:35;9.30;99.90
45319;DHT22;31057;48.498;32.260;2023-01-19T17:54:37;9.20;99.90
45319;DHT22;31057;48.498;32.260;2023-01-19T17:56:39;9.10;99.90
45319;DHT22;31057;48.498;32.260;2023-01-19T17:58:43;9.10;99.90
45319;DHT22;31057;48.498;32.260;2023-01-19T18:00:45;9.00;99.90
45319;DHT22;31057;48.498;32.260;2023-01-19T20:13:40;8.20;99.90
45319;DHT22;31057;48.498;32.260;2023-01-19T20:15:42;8.20;99.90
45319;DHT22;31057;48.498;32.260;2023-01-19T20:17:45;8.30;99.90
45319;DHT22;31057;48.498;32.260;2023-01-19T20:19:46;8.20;99.90
45319;DHT22;31057;48.498;32.260;2023-01-19T20:21:49;8.10;99.90
45319;DHT22;31057;48.498;32.260;2023-01-19T20:23:52;8.20;99.90
45319;DHT22;31057;48.498;32.260;2023-01-19T20:25:54;8.10;99.90
45319;DHT22;31057;48.498;32.260;2023-01-19T20:27:56;8.20;99.90
45319;DHT22;31057;48.498;32.260;2023-01-19T20:30:00;8.10;99.90
45319;DHT22;31057;48.498;32.260;2023-01-19T20:32:02;8.00;99.90
45319;DHT22;31057;48.498;32.260;2023-01-19T20:34:07;8.00;99.90
45319;DHT22;31057;48.498;32.260;2023-01-19T20:36:11;7.90;99.90
45319;DHT22;31057;48.498;32.260;2023-01-19T20:38:14;7.80;99.90
45319;DHT22;31057;48.498;32.260;2023-01-19T20:40:16;8.00;99.90
45319;DHT22;31057;48.498;32.260;2023-01-19T20:42:19;8.10;99.90
45319;DHT22;31057;48.498;32.260;2023-01-19T20:44:23;8.00;99.90
45319;DHT22;31057;48.498;32.260;2023-01-19T20:46:25;8.00;99.90
45319;DHT22;31057;48.498;32.260;2023-01-19T20:48:27;7.90;99.90
45319;DHT22;31057;48.498;32.260;2023-01-19T20:50:29;7.90;99.90
45319;DHT22;31057;48.498;32.260;2023-01-19T20:52:33;7.80;99.90
45319;DHT22;31057;48.498;32.260;2023-01-19T20:54:36;7.80;99.90
45319;DHT22;31057;48.498;32.260;2023-01-19T20:56:40;7.90;99.90
45319;DHT22;31057;48.498;32.260;2023-01-19T20:58:42;7.90;99.90
45319;DHT22;31057;48.498;32.260;2023-01-19T21:00:44;7.90;99.90
45319;DHT22;31057;48.498;32.260;2023-01-19T21:02:46;7.80;99.90
45319;DHT22;31057;48.498;32.260;2023-01-19T21:04:48;7.80;99.90
45319;DHT22;31057;48.498;32.260;2023-01-19T21:06:51;7.80;99.90
45319;DHT22;31057;48.498;32.260;2023-01-19T21:08:53;7.80;99.90
45319;DHT22;31057;48.498;32.260;2023-01-19T21:10:56;7.80;99.90
45319;DHT22;31057;48.498;32.260;2023-01-19T21:12:58;7.90;99.90
45319;DHT22;31057;48.498;32.260;2023-01-19T21:15:00;7.90;99.90
45319;DHT22;31057;48.498;32.260;2023-01-19T21:17:02;7.90;99.90
45319;DHT22;31057;48.498;32.260;2023-01-19T21:19:04;7.80;99.90
45319;DHT22;31057;48.498;32.260;2023-01-19T21:21:07;7.70;99.90
45319;DHT22;31057;48.498;32.260;2023-01-19T21:23:22;7.70;99.90
45319;DHT22;31057;48.498;32.260;2023-01-19T21:25:24;7.70;99.90
45319;DHT22;31057;48.498;32.260;2023-01-19T21:27:26;7.70;99.90
45319;DHT22;31057;48.498;32.260;2023-01-19T21:29:28;7.80;99.90
45319;DHT22;31057;48.498;32.260;2023-01-19T21:31:30;7.80;99.90
45319;DHT22;31057;48.498;32.260;2023-01-19T21:33:33;7.90;99.90
45319;DHT22;31057;48.498;32.260;2023-01-19T21:35:36;7.90;99.90
45319;DHT22;31057;48.498;32.260;2023-01-19T21:37:38;7.80;99.90
45319;DHT22;31057;48.498;32.260;2023-01-19T21:39:40;7.70;99.90
45319;DHT22;31057;48.498;32.260;2023-01-19T21:41:42;7.70;99.90
45319;DHT22;31057;48.498;32.260;2023-01-19T21:43:45;7.60;99.90
45319;DHT22;31057;48.498;32.260;2023-01-19T21:45:47;7.60;99.90
45319;DHT22;31057;48.498;32.260;2023-01-19T21:47:49;7.60;99.90
45319;DHT22;31057;48.498;32.260;2023-01-19T21:49:51;7.60;99.90
45319;DHT22;31057;48.498;32.260;2023-01-19T21:51:53;7.60;99.90
45319;DHT22;31057;48.498;32.260;2023-01-19T21:53:56;7.50;99.90
45319;DHT22;31057;48.498;32.260;2023-01-19T21:56:00;7.50;99.90
45319;DHT22;31057;48.498;32.260;2023-01-19T21:58:03;7.50;99.90
45319;DHT22;31057;48.498;32.260;2023-01-19T22:00:06;7.40;99.90
